createdAt,value
2018-04-20T00:00:54.345Z,53.60
2018-04-20T00:03:22.595Z,54.10
2018-04-20T00:05:50.827Z,54.30
2018-04-20T00:08:19.078Z,54.00
2018-04-20T00:10:48.097Z,53.80
2018-04-20T00:13:16.336Z,53.80
2018-04-20T00:15:44.669Z,53.80
2018-04-20T00:18:13.015Z,54.40
2018-04-20T00:20:41.257Z,53.90
2018-04-20T00:23:11.011Z,54.30
2018-04-20T00:25:40.159Z,54.20
2018-04-20T00:28:08.452Z,54.50
2018-04-20T00:30:36.691Z,54.40
2018-04-20T00:33:05.790Z,54.50
2018-04-20T00:35:34.063Z,54.40
2018-04-20T00:38:02.364Z,54.50
2018-04-20T00:40:30.611Z,55.30
2018-04-20T00:42:58.890Z,55.30
2018-04-20T00:45:27.969Z,55.60
2018-04-20T00:47:56.282Z,55.50
2018-04-20T00:50:24.665Z,55.60
2018-04-20T00:52:53.092Z,55.40
2018-04-20T00:55:21.350Z,55.60
2018-04-20T00:57:49.602Z,55.60
2018-04-20T01:00:18.783Z,56.10
2018-04-20T01:02:47.081Z,56.00
2018-04-20T01:05:16.100Z,55.80
2018-04-20T01:07:44.465Z,55.70
2018-04-20T01:10:12.863Z,56.60
2018-04-20T01:12:41.103Z,56.50
2018-04-20T01:15:10.147Z,57.70
2018-04-20T01:17:38.398Z,57.70
2018-04-20T01:20:06.658Z,57.70
2018-04-20T01:22:34.949Z,58.50
2018-04-20T01:25:03.322Z,58.80
2018-04-20T01:27:31.597Z,58.70
2018-04-20T01:29:59.969Z,58.50
2018-04-20T01:32:28.303Z,58.60
2018-04-20T01:34:56.537Z,58.80
2018-04-20T01:37:24.803Z,59.70
2018-04-20T01:39:53.062Z,59.00
2018-04-20T01:42:21.329Z,58.10
2018-04-20T01:44:49.784Z,57.50
2018-04-20T01:47:18.036Z,57.60
2018-04-20T01:49:46.302Z,57.40
2018-04-20T01:52:14.533Z,57.20
2018-04-20T01:54:42.813Z,58.80
2018-04-20T01:57:11.050Z,57.70
2018-04-20T01:59:39.335Z,57.70
2018-04-20T02:02:07.570Z,58.00
2018-04-20T02:04:35.843Z,57.90
2018-04-20T02:07:05.010Z,57.90
2018-04-20T02:09:33.281Z,57.90
2018-04-20T02:12:01.518Z,57.80
2018-04-20T02:14:29.753Z,57.80
2018-04-20T02:16:57.992Z,58.40
2018-04-20T02:19:27.022Z,58.70
2018-04-20T02:21:55.267Z,58.60
2018-04-20T02:24:23.553Z,58.90
2018-04-20T02:26:51.803Z,58.70
2018-04-20T02:29:20.101Z,59.40
2018-04-20T02:31:48.339Z,59.10
2018-04-20T02:34:16.622Z,59.10
2018-04-20T02:36:45.667Z,59.70
2018-04-20T02:39:14.009Z,59.10
2018-04-20T02:41:42.366Z,59.00
2018-04-20T02:44:11.395Z,58.90
2018-04-20T02:46:39.677Z,58.80
2018-04-20T02:49:07.949Z,59.40
2018-04-20T02:51:36.202Z,59.00
2018-04-20T02:54:04.500Z,60.00
2018-04-20T02:56:32.837Z,60.20
2018-04-20T02:59:01.108Z,60.50
2018-04-20T03:01:29.344Z,60.20
2018-04-20T03:03:57.598Z,60.60
2018-04-20T03:06:25.855Z,60.60
2018-04-20T03:08:54.203Z,60.60
2018-04-20T03:11:22.517Z,61.10
2018-04-20T03:13:50.781Z,61.50
2018-04-20T03:16:19.090Z,61.70
2018-04-20T03:18:47.330Z,61.90
2018-04-20T03:21:16.353Z,63.00
2018-04-20T03:23:44.806Z,63.00
2018-04-20T03:26:13.122Z,63.60
2018-04-20T03:28:41.465Z,63.40
2018-04-20T03:31:09.731Z,63.50
2018-04-20T03:33:37.994Z,67.60
2018-04-20T03:36:06.264Z,70.50
2018-04-20T03:38:34.527Z,69.00
2018-04-20T03:41:02.766Z,67.00
2018-04-20T03:43:31.042Z,68.50
2018-04-20T03:45:59.338Z,68.30
2018-04-20T03:48:30.323Z,68.50
2018-04-20T03:50:58.572Z,66.90
2018-04-20T03:53:26.822Z,66.70
2018-04-20T03:55:55.061Z,66.70
2018-04-20T03:58:23.340Z,67.50
2018-04-20T04:00:51.625Z,68.20
2018-04-20T04:03:19.889Z,67.40
2018-04-20T04:05:48.315Z,66.80
2018-04-20T04:08:16.553Z,67.60
2018-04-20T04:10:44.913Z,68.40
2018-04-20T04:13:13.901Z,68.00
2018-04-20T04:15:42.273Z,68.00
2018-04-20T04:18:22.341Z,68.50
2018-04-20T04:20:52.489Z,69.10
2018-04-20T04:23:32.728Z,68.50
2018-04-20T04:26:12.798Z,68.10
2018-04-20T04:28:41.042Z,67.60
2018-04-20T04:31:09.302Z,66.90
2018-04-20T04:33:38.357Z,67.90
2018-04-20T04:36:06.622Z,67.90
2018-04-20T04:38:35.665Z,69.10
2018-04-20T04:41:03.933Z,69.10
2018-04-20T04:43:32.196Z,68.40
2018-04-20T04:46:01.221Z,69.00
2018-04-20T04:48:29.480Z,69.00
2018-04-20T04:50:57.767Z,68.80
2018-04-20T04:53:26.069Z,69.20
2018-04-20T04:55:54.587Z,68.90
2018-04-20T04:58:22.821Z,68.60
2018-04-20T05:00:51.078Z,69.40
2018-04-20T05:03:19.347Z,69.50
2018-04-20T05:05:47.617Z,70.10
2018-04-20T05:08:15.900Z,69.50
2018-04-20T05:10:44.198Z,69.20
2018-04-20T05:13:12.484Z,68.70
2018-04-20T05:15:41.558Z,68.40
2018-04-20T05:18:10.666Z,66.70
2018-04-20T05:20:38.949Z,66.60
2018-04-20T05:23:07.221Z,65.20
2018-04-20T05:25:35.525Z,64.10
2018-04-20T05:28:03.832Z,63.30
2018-04-20T05:30:32.124Z,62.50
2018-04-20T05:33:00.434Z,61.30
2018-04-20T05:35:28.737Z,60.60
2018-04-20T05:37:57.004Z,60.10
2018-04-20T05:40:26.022Z,59.20
2018-04-20T05:42:54.315Z,59.10
2018-04-20T05:45:22.578Z,58.20
2018-04-20T05:47:50.882Z,58.10
2018-04-20T05:50:19.137Z,57.60
2018-04-20T05:52:47.386Z,57.50
2018-04-20T05:55:16.506Z,57.30
2018-04-20T05:57:44.749Z,57.20
2018-04-20T06:00:13.014Z,56.80
2018-04-20T06:02:42.041Z,57.80
2018-04-20T06:05:10.433Z,57.80
2018-04-20T06:07:38.759Z,58.20
2018-04-20T06:10:07.780Z,58.90
2018-04-20T06:12:36.034Z,58.90
2018-04-20T06:15:04.281Z,58.70
2018-04-20T06:17:32.699Z,59.00
2018-04-20T06:20:01.682Z,59.50
2018-04-20T06:22:30.692Z,60.10
2018-04-20T06:24:58.959Z,60.10
2018-04-20T06:27:27.201Z,60.70
2018-04-20T06:29:56.379Z,61.50
2018-04-20T06:32:24.625Z,61.50
2018-04-20T06:34:52.940Z,62.20
2018-04-20T06:37:21.174Z,61.50
2018-04-20T06:39:49.433Z,62.00
2018-04-20T06:42:17.693Z,61.20
2018-04-20T06:44:45.958Z,61.70
2018-04-20T06:47:15.013Z,62.10
2018-04-20T06:49:43.268Z,62.00
2018-04-20T06:52:11.513Z,61.90
2018-04-20T06:54:39.868Z,61.50
2018-04-20T06:57:08.160Z,62.10
2018-04-20T06:59:36.410Z,62.20
2018-04-20T07:02:05.450Z,61.90
2018-04-20T07:04:33.723Z,61.80
2018-04-20T07:07:02.050Z,62.10
2018-04-20T07:09:30.307Z,61.40
2018-04-20T07:11:58.560Z,60.40
2018-04-20T07:14:26.827Z,60.60
2018-04-20T07:16:55.082Z,58.90
2018-04-20T07:19:23.334Z,59.30
2018-04-20T07:21:52.512Z,58.00
2018-04-20T07:24:20.870Z,58.00
2018-04-20T07:26:49.145Z,57.80
2018-04-20T07:29:18.197Z,57.60
2018-04-20T07:31:46.569Z,57.60
2018-04-20T07:34:14.837Z,58.00
2018-04-20T07:36:43.192Z,57.80
2018-04-20T07:39:11.487Z,57.50
2018-04-20T07:41:40.725Z,57.00
2018-04-20T07:44:08.929Z,56.90
2018-04-20T07:46:37.187Z,56.30
2018-04-20T07:49:05.445Z,56.60
2018-04-20T07:51:33.702Z,56.90
2018-04-20T07:54:02.034Z,56.50
2018-04-20T07:56:31.053Z,55.60
2018-04-20T07:58:59.323Z,55.50
2018-04-20T08:01:28.346Z,54.80
2018-04-20T08:03:56.597Z,54.80
2018-04-20T08:06:25.080Z,54.80
2018-04-20T08:08:54.125Z,55.60
2018-04-20T08:11:22.378Z,55.70
2018-04-20T08:13:50.665Z,55.60
2018-04-20T08:16:18.899Z,55.80
2018-04-20T08:18:47.158Z,54.10
2018-04-20T08:21:16.174Z,54.60
2018-04-20T08:23:44.446Z,54.50
2018-04-20T08:26:12.702Z,54.90
2018-04-20T08:28:41.753Z,53.90
2018-04-20T08:31:10.008Z,53.90
2018-04-20T08:33:38.365Z,53.90
2018-04-20T08:36:06.622Z,54.20
2018-04-20T08:38:35.638Z,54.40
2018-04-20T08:41:03.913Z,54.30
2018-04-20T08:43:32.177Z,55.00
2018-04-20T08:46:00.527Z,54.50
2018-04-20T08:48:29.547Z,54.50
2018-04-20T08:50:58.220Z,54.50
2018-04-20T08:53:26.434Z,54.00
2018-04-20T08:55:54.696Z,54.50
2018-04-20T08:58:22.954Z,52.60
2018-04-20T09:00:51.230Z,53.80
2018-04-20T09:03:19.494Z,53.30
2018-04-20T09:05:48.527Z,54.80
2018-04-20T09:08:16.753Z,54.80
2018-04-20T09:10:45.793Z,53.50
2018-04-20T09:13:14.017Z,53.40
2018-04-20T09:15:43.103Z,54.60
2018-04-20T09:18:11.322Z,54.50
2018-04-20T09:20:39.574Z,53.30
2018-04-20T09:23:07.838Z,53.30
2018-04-20T09:25:36.892Z,52.70
2018-04-20T09:28:05.140Z,52.60
2018-04-20T09:30:33.401Z,52.70
2018-04-20T09:33:01.682Z,52.60
2018-04-20T09:35:29.933Z,53.00
2018-04-20T09:37:59.021Z,52.60
2018-04-20T09:40:28.107Z,53.00
2018-04-20T09:42:56.369Z,52.90
2018-04-20T09:45:24.630Z,52.80
2018-04-20T09:47:52.926Z,52.60
2018-04-20T09:50:21.149Z,53.20
2018-04-20T09:52:49.434Z,52.40
2018-04-20T09:55:17.714Z,52.30
2018-04-20T09:57:45.997Z,51.10
2018-04-20T10:00:14.241Z,52.50
2018-04-20T10:02:42.530Z,52.20
2018-04-20T10:05:10.766Z,51.50
2018-04-20T10:07:39.939Z,50.70
2018-04-20T10:10:08.222Z,50.70
2018-04-20T10:12:36.528Z,52.10
2018-04-20T10:15:04.783Z,51.30
2018-04-20T10:17:33.865Z,51.10
2018-04-20T10:20:02.154Z,50.90
2018-04-20T10:22:31.189Z,50.70
2018-04-20T10:24:59.492Z,50.60
2018-04-20T10:27:27.768Z,50.00
2018-04-20T10:29:56.099Z,50.40
2018-04-20T10:32:24.340Z,50.40
2018-04-20T10:34:53.370Z,51.00
2018-04-20T10:37:21.646Z,50.40
2018-04-20T10:39:50.025Z,50.40
2018-04-20T10:42:18.265Z,50.40
2018-04-20T10:44:46.542Z,50.30
2018-04-20T10:47:14.815Z,50.10
2018-04-20T10:49:44.005Z,50.20
2018-04-20T10:52:12.310Z,49.60
2018-04-20T10:54:40.571Z,49.60
2018-04-20T10:57:08.840Z,50.00
2018-04-20T10:59:37.929Z,49.80
2018-04-20T11:02:06.941Z,49.30
2018-04-20T11:04:35.196Z,49.20
2018-04-20T11:07:04.226Z,49.00
2018-04-20T11:09:33.197Z,48.90
2018-04-20T11:12:01.493Z,48.70
2018-04-20T11:14:29.793Z,48.30
2018-04-20T11:16:58.042Z,48.30
2018-04-20T11:19:26.279Z,48.10
2018-04-20T11:21:54.631Z,48.30
2018-04-20T11:24:23.677Z,47.60
2018-04-20T11:26:51.954Z,47.70
2018-04-20T11:29:20.484Z,46.50
2018-04-20T11:44:49.601Z,46.90
2018-04-20T11:47:17.879Z,47.50
2018-04-20T11:49:46.146Z,46.20
2018-04-20T11:52:14.424Z,46.40
2018-04-20T11:54:42.773Z,44.60
2018-04-20T11:57:11.817Z,44.80
2018-04-20T11:59:40.085Z,44.40
2018-04-20T12:02:08.399Z,44.50
2018-04-20T12:04:36.807Z,45.50
2018-04-20T12:07:05.838Z,43.40
2018-04-20T12:09:34.083Z,43.40
2018-04-20T12:12:04.202Z,44.50
2018-04-20T12:14:32.457Z,44.40
2018-04-20T12:17:01.479Z,42.00
2018-04-20T12:19:29.742Z,42.00
2018-04-20T12:21:58.758Z,41.50
2018-04-20T12:24:27.036Z,41.50
2018-04-20T12:26:55.286Z,43.20
2018-04-20T12:29:23.656Z,43.40
2018-04-20T12:31:51.958Z,43.70
2018-04-20T12:34:20.453Z,43.30
2018-04-20T12:36:48.790Z,42.40
2018-04-20T12:39:17.827Z,42.20
2018-04-20T12:41:46.227Z,42.10
2018-04-20T12:44:14.584Z,42.00
2018-04-20T12:46:42.964Z,41.80
2018-04-20T12:49:11.232Z,42.80
2018-04-20T12:51:39.477Z,42.60
2018-04-20T12:54:07.916Z,43.00
2018-04-20T12:56:36.262Z,41.60
2018-04-20T12:59:04.511Z,42.50
2018-04-20T13:01:32.778Z,41.90
2018-04-20T13:04:01.041Z,42.90
2018-04-20T13:06:30.069Z,42.20
2018-04-20T13:08:58.425Z,42.10
2018-04-20T13:11:26.694Z,41.30
2018-04-20T13:13:55.754Z,41.90
2018-04-20T13:16:24.032Z,41.80
2018-04-20T13:18:52.394Z,40.50
2018-04-20T13:21:20.665Z,40.40
2018-04-20T13:23:48.931Z,40.70
2018-04-20T13:26:17.236Z,40.70
2018-04-20T13:28:45.516Z,41.90
2018-04-20T13:31:13.791Z,41.80
2018-04-20T13:33:42.041Z,40.30
2018-04-20T13:36:11.148Z,41.10
2018-04-20T13:38:39.411Z,41.10
2018-04-20T13:41:07.674Z,40.20
2018-04-20T13:43:35.942Z,39.80
2018-04-20T13:46:04.226Z,39.60
2018-04-20T13:48:34.167Z,38.70
2018-04-20T13:51:02.431Z,38.60
2018-04-20T13:53:30.691Z,40.50
2018-04-20T13:55:58.933Z,37.10
2018-04-20T13:58:27.199Z,37.80
2018-04-20T14:00:55.512Z,36.40
2018-04-20T14:03:23.749Z,35.80
2018-04-20T14:05:52.034Z,35.50
2018-04-20T14:08:20.327Z,36.20
2018-04-20T14:10:48.605Z,36.30
2018-04-20T14:13:16.884Z,36.10
2018-04-20T14:15:45.133Z,35.60
2018-04-20T14:18:13.409Z,35.40
2018-04-20T14:20:41.656Z,34.50
2018-04-20T14:23:09.922Z,34.90
2018-04-20T14:25:38.182Z,34.50
2018-04-20T14:28:06.476Z,34.10
2018-04-20T14:30:35.575Z,34.80
2018-04-20T14:33:03.845Z,34.80
2018-04-20T14:35:32.116Z,35.20
2018-04-20T14:38:00.460Z,34.90
2018-04-20T14:40:28.727Z,35.60
2018-04-20T14:42:56.987Z,36.30
2018-04-20T14:45:25.263Z,34.80
2018-04-20T14:47:53.585Z,35.20
2018-04-20T14:50:21.863Z,36.00
2018-04-20T14:52:50.162Z,35.40
2018-04-20T14:55:19.242Z,35.50
2018-04-20T14:57:47.502Z,35.40
2018-04-20T15:00:15.806Z,36.00
2018-04-20T15:02:44.829Z,35.60
2018-04-20T15:05:13.439Z,35.50
2018-04-20T15:07:43.249Z,35.70
2018-04-20T15:10:11.473Z,36.50
2018-04-20T15:12:39.742Z,35.10
2018-04-20T15:15:08.773Z,35.10
2018-04-20T15:17:37.154Z,35.10
2018-04-20T15:20:05.411Z,35.10
2018-04-20T15:22:33.681Z,35.00
2018-04-20T15:25:01.946Z,34.90
2018-04-20T15:27:30.191Z,34.60
2018-04-20T15:29:58.521Z,34.70
2018-04-20T15:32:27.066Z,35.00
2018-04-20T15:34:56.066Z,35.20
2018-04-20T15:37:24.394Z,35.20
2018-04-20T15:39:52.703Z,35.00
2018-04-20T15:42:20.981Z,35.00
2018-04-20T15:44:50.102Z,35.40
2018-04-20T15:47:18.369Z,35.30
2018-04-20T15:49:46.716Z,35.80
2018-04-20T15:52:14.945Z,35.40
2018-04-20T15:54:43.288Z,35.10
2018-04-20T15:57:11.889Z,35.70
2018-04-20T15:59:40.149Z,35.50
2018-04-20T16:02:08.431Z,35.40
2018-04-20T16:04:37.444Z,35.60
2018-04-20T16:07:05.708Z,35.60
2018-04-20T16:09:33.962Z,36.10
2018-04-20T16:12:02.206Z,36.60
2018-04-20T16:14:30.463Z,35.70
2018-04-20T16:16:58.741Z,35.50
2018-04-20T16:19:27.039Z,35.90
2018-04-20T16:21:55.325Z,36.70
2018-04-20T16:24:23.586Z,37.10
2018-04-20T16:26:51.849Z,35.70
2018-04-20T16:29:20.133Z,36.80
2018-04-20T16:31:48.407Z,35.80
2018-04-20T16:34:16.657Z,36.30
2018-04-20T16:36:44.902Z,36.40
2018-04-20T16:39:13.255Z,37.00
2018-04-20T16:41:41.507Z,36.80
2018-04-20T16:44:09.759Z,36.60
2018-04-20T16:46:38.036Z,37.10
2018-04-20T16:49:06.318Z,36.80
2018-04-20T16:51:34.574Z,37.00
2018-04-20T16:54:02.950Z,37.30
2018-04-20T16:56:31.219Z,37.50
2018-04-20T16:58:59.518Z,38.00
2018-04-20T17:01:27.988Z,38.30
2018-04-20T17:03:56.213Z,38.50
2018-04-20T17:06:24.490Z,38.50
2018-04-20T17:08:53.534Z,38.90
2018-04-20T17:11:21.887Z,39.50
2018-04-20T17:13:50.285Z,39.20
2018-04-20T17:16:18.584Z,39.50
2018-04-20T17:18:47.481Z,39.50
2018-04-20T17:21:16.536Z,38.80
2018-04-20T17:23:44.805Z,38.80
2018-04-20T17:26:13.075Z,39.50
2018-04-20T17:28:41.387Z,40.20
2018-04-20T17:31:09.714Z,40.60
2018-04-20T17:33:38.108Z,40.90
2018-04-20T17:36:06.398Z,41.20
2018-04-20T17:38:34.849Z,41.00
2018-04-20T17:41:03.105Z,41.20
2018-04-20T17:43:31.452Z,41.70
2018-04-20T17:45:59.683Z,41.60
2018-04-20T17:48:27.975Z,41.70
2018-04-20T17:50:56.236Z,41.80
2018-04-20T17:53:24.522Z,42.60
2018-04-20T17:55:52.801Z,43.90
2018-04-20T17:58:21.103Z,44.70
2018-04-20T18:00:49.388Z,45.30
2018-04-20T18:03:18.444Z,46.30
2018-04-20T18:05:46.743Z,46.20
2018-04-20T18:08:15.047Z,46.70
2018-04-20T18:10:43.356Z,47.50
2018-04-20T18:13:12.358Z,47.40
2018-04-20T18:15:40.818Z,47.30
2018-04-20T18:18:09.141Z,47.60
2018-04-20T18:20:37.424Z,47.90
2018-04-20T18:23:05.904Z,48.10
2018-04-20T18:25:34.169Z,48.90
2018-04-20T18:28:02.422Z,48.70
2018-04-20T18:30:30.732Z,49.00
2018-04-20T18:32:58.972Z,49.30
2018-04-20T18:35:27.512Z,49.20
2018-04-20T18:37:56.678Z,50.10
2018-04-20T18:40:24.938Z,50.00
2018-04-20T18:42:53.250Z,50.30
2018-04-20T18:45:21.567Z,50.50
2018-04-20T18:47:49.827Z,50.80
2018-04-20T18:50:18.144Z,51.10
2018-04-20T18:52:46.474Z,51.40
2018-04-20T18:55:14.722Z,51.70
2018-04-20T18:57:43.820Z,52.30
2018-04-20T19:00:12.177Z,52.30
2018-04-20T19:05:12.098Z,53.40
2018-04-20T19:07:40.415Z,53.30
2018-04-20T19:10:08.697Z,53.70
2018-04-20T19:12:36.949Z,54.10
2018-04-20T19:15:05.316Z,54.40
2018-04-20T19:17:33.558Z,54.80
2018-04-20T19:20:03.563Z,55.00
2018-04-20T19:22:31.849Z,55.50
2018-04-20T19:25:00.110Z,55.80
2018-04-20T19:27:28.410Z,56.20
2018-04-20T19:29:57.469Z,56.80
2018-04-20T19:32:25.798Z,56.70
2018-04-20T19:34:54.046Z,56.90
2018-04-20T19:37:22.648Z,56.80
2018-04-20T19:39:50.894Z,56.40
2018-04-20T19:42:19.959Z,57.40
2018-04-20T19:44:48.235Z,56.80
2018-04-20T19:47:16.514Z,56.40
2018-04-20T19:49:44.837Z,56.60
2018-04-20T19:52:13.106Z,56.40
2018-04-20T19:54:41.399Z,57.20
2018-04-20T19:57:10.409Z,56.50
2018-04-20T19:59:38.761Z,56.50
2018-04-20T20:02:07.786Z,57.10
2018-04-20T20:04:36.434Z,56.50
2018-04-20T20:07:05.472Z,56.60
2018-04-20T20:09:33.770Z,56.50
2018-04-20T20:12:02.021Z,56.90
2018-04-20T20:14:30.299Z,56.80
2018-04-20T20:16:58.566Z,56.90
2018-04-20T20:19:26.906Z,56.90
2018-04-20T20:21:55.314Z,57.00
2018-04-20T20:24:23.609Z,56.80
2018-04-20T20:26:51.892Z,57.10
2018-04-20T20:29:20.209Z,56.70
2018-04-20T20:31:48.471Z,57.10
2018-04-20T20:34:16.760Z,57.30
2018-04-20T20:36:45.022Z,57.50
2018-04-20T20:39:13.304Z,57.70
2018-04-20T20:41:41.574Z,58.50
2018-04-20T20:44:09.848Z,57.90
2018-04-20T20:46:38.130Z,58.20
2018-04-20T20:49:07.178Z,58.90
2018-04-20T20:51:35.452Z,58.60
2018-04-20T20:54:03.780Z,58.80
2018-04-20T20:56:32.043Z,59.00
2018-04-20T20:59:00.299Z,59.20
2018-04-20T21:01:28.589Z,59.30
2018-04-20T21:03:57.628Z,59.60
2018-04-20T21:06:25.899Z,59.50
2018-04-20T21:08:54.251Z,59.70
2018-04-20T21:11:22.520Z,59.90
2018-04-20T21:13:50.825Z,60.50
2018-04-20T21:16:19.178Z,61.40
2018-04-20T21:18:48.291Z,62.70
2018-04-20T21:21:16.562Z,62.20
2018-04-20T21:23:45.599Z,62.10
2018-04-20T21:26:13.869Z,61.90
2018-04-20T21:28:42.920Z,61.90
2018-04-20T21:31:11.337Z,61.80
2018-04-20T21:33:39.641Z,62.40
2018-04-20T21:36:08.651Z,62.60
2018-04-20T21:38:37.140Z,62.50
2018-04-20T21:41:05.432Z,62.70
2018-04-20T21:43:33.721Z,63.90
2018-04-20T21:46:02.038Z,63.20
2018-04-20T21:48:30.301Z,63.20
2018-04-20T21:50:58.573Z,63.40
2018-04-20T21:53:26.868Z,63.80
2018-04-20T21:55:55.147Z,64.20
2018-04-20T21:58:23.418Z,64.50
2018-04-20T22:00:52.498Z,64.90
2018-04-20T22:03:20.811Z,64.80
2018-04-20T22:05:49.835Z,65.70
2018-04-20T22:08:18.115Z,65.60
2018-04-20T22:10:46.382Z,66.60
2018-04-20T22:13:14.708Z,66.80
2018-04-20T22:15:43.098Z,66.60
2018-04-20T22:18:11.359Z,67.20
2018-04-20T22:20:39.753Z,67.70
2018-04-20T22:23:08.847Z,68.40
2018-04-20T22:25:37.889Z,68.10
2018-04-20T22:28:06.161Z,68.20
2018-04-20T22:30:34.421Z,67.60
2018-04-20T22:33:02.691Z,66.70
2018-04-20T22:35:30.975Z,66.30
2018-04-20T22:37:59.257Z,67.00
2018-04-20T22:40:27.685Z,66.70
2018-04-20T22:42:56.787Z,66.20
2018-04-20T22:45:25.021Z,66.20
2018-04-20T22:47:53.282Z,66.50
2018-04-20T22:50:21.570Z,66.90
2018-04-20T22:52:49.885Z,66.60
2018-04-20T22:55:18.138Z,67.20
2018-04-20T22:57:46.421Z,67.50
2018-04-20T23:00:21.218Z,68.80
2018-04-20T23:02:49.210Z,68.50
2018-04-20T23:05:17.489Z,68.30
2018-04-20T23:07:45.829Z,68.40
2018-04-20T23:10:14.130Z,69.30
2018-04-20T23:12:42.398Z,68.50
2018-04-20T23:15:10.687Z,69.40
2018-04-20T23:17:38.989Z,68.90
2018-04-20T23:20:07.465Z,69.20
2018-04-20T23:22:35.721Z,69.30
2018-04-20T23:25:04.010Z,69.80
2018-04-20T23:27:33.041Z,71.10
2018-04-20T23:30:01.374Z,70.00
2018-04-20T23:32:29.869Z,70.30
2018-04-20T23:34:58.126Z,70.50
2018-04-20T23:37:26.386Z,70.90
2018-04-20T23:39:54.677Z,70.70
2018-04-20T23:42:23.065Z,71.10
2018-04-20T23:44:52.115Z,71.20
2018-04-20T23:47:20.409Z,71.10
2018-04-20T23:49:48.706Z,71.60
2018-04-20T23:52:16.977Z,71.60
2018-04-20T23:54:46.005Z,72.00
2018-04-20T23:57:14.289Z,71.90
2018-04-20T23:59:42.562Z,71.80
